weather station
Area: 11014 km2
The highest point: Tok (865 m.s.l.)
Total stations: 58
Stations online: 57
Stations offline: 1
Current weather
6°C

Meteorological map - weather stations in Středočeský

. The meteorological maps show weather information from WARIO weather stations

Weather stations Středočeský

 UpdatesNameStatusTemperatureHumidityWind speedWind direction
21.4.2024 14:38Vestec6.4 °C43.4 %2.9 m/s E
21.4.2024 14:38Barochov5.8 °C56.1 %3.2 m/s E
21.4.2024 14:38Beroun5.6 °C57.8 %1.9 m/s SE
21.4.2024 14:38Beroun5.9 °C53.3 %2.3 m/s N
21.4.2024 14:38Bořanovice7.3 °C51.1 %0.8 m/s NW
21.4.2024 14:38Jílové u Prahy - Borek7.9 °C51.2 %0.8 m/s W
21.4.2024 14:38Břešťany7.9 °C46.4 %3.4 m/s N
21.4.2024 14:38Brandýs nad Labem9.9 °C36.4 %1.1 m/s SW
21.4.2024 14:38Budiměřice10.9 °C41.4 %0.8 m/s NE
2.4.2024 08:17Rakovník7.9 °C81.6 %0.0 m/s W
21.4.2024 14:38Králův Dvůr5.8 °C59.2 %4.1 m/s NE
21.4.2024 14:38Černošice7.9 °C42.4 %2.5 m/s N
21.4.2024 14:38Chotětov11.4 °C36.3 %5.5 m/s SW
21.4.2024 14:38Přítoky7.4 °C55.8 %2.1 m/s NE
21.4.2024 14:38Dolní Břežany5.9 °C50.7 %3.6 m/s W
21.4.2024 14:38Milovice8.3 °C39.3 %1.6 m/s NE
21.4.2024 14:38Horní Bezděkov5.7 °C54.4 %1.8 m/s S
21.4.2024 14:38Hovorčovice7.2 °C100.0 %1.2 m/s N
21.4.2024 14:38Sedlčany9.4 °C56.9 %0.0 m/s W
21.4.2024 14:37Žebrák6.0 °C56.0 %2.8 m/s N
21.4.2024 14:38Jiřetice4.9 °C53.2 %1.7 m/s NE
21.4.2024 14:38Kostelec nad Černými lesy6.2 °C58.4 %0.0 m/s NE
21.4.2024 14:38Kostelec nad Černými lesy10.6 °C41.0 %2.4 m/s SW
21.4.2024 14:38Krásná Hora nad Vltavou5.2 °C70.2 %0.9 m/s N
21.4.2024 14:38Květnice-40.0 °C %0.0 m/s SW
21.4.2024 14:38Krušovice6.1 °C58.5 %1.6 m/s E
21.4.2024 14:38Zdice6.6 °C48.1 %2.7 m/s NE
21.4.2024 14:38Měšice8.0 °C51.3 %1.9 m/s NE
21.4.2024 14:38Vestec6.6 °C43.0 %1.5 m/s NE
21.4.2024 14:38Jince7.5 °C49.2 %3.5 m/s E
21.4.2024 14:38Dolní Jirčany7.0 °C53.5 %3.1 m/s S
21.4.2024 14:38Cetyně6.0 °C56.2 %3.6 m/s NE
21.4.2024 14:37Nová Ves7.4 °C46.3 %3.2 m/s SW
21.4.2024 14:38Vysoký Újezd4.4 °C57.9 %2.8 m/s NE
21.4.2024 14:38Osnice7.7 °C45.9 %1.1 m/s W
21.4.2024 14:37Srby5.8 °C51.4 %1.2 m/s NW
21.4.2024 14:38Sulice5.9 °C50.5 %4.7 m/s S
21.4.2024 14:38Milín4.5 °C62.0 %2.7 m/s E
21.4.2024 14:38Líbeznice6.8 °C44.4 %0.6 m/s NE
21.4.2024 14:38Mnichovice5.6 °C52.6 %1.2 m/s N
21.4.2024 14:38Mnichovice7.6 °C47.3 %1.3 m/s W
21.4.2024 14:38Mníšek pod Brdy4.8 °C43.9 %3.1 m/s NE
21.4.2024 14:38Hořovice5.0 °C62.3 %4.5 m/s E
21.4.2024 14:38Ostrá7.9 °C50.8 %1.6 m/s SE
21.4.2024 14:38Suchodol5.1 °C73.4 %2.9 m/s E
21.4.2024 14:38Říčany6.5 °C54.3 %1.3 m/s N
21.4.2024 14:38Pravětice26.9 °C %4.5 m/s SW
21.4.2024 14:38Svojetice4.4 °C55.4 %2.8 m/s NW
21.4.2024 14:38Třebonín6.5 °C52.4 %1.4 m/s NE
21.4.2024 14:38Třebsko4.7 °C48.6 %2.6 m/s E
21.4.2024 14:38Unhošť7.9 °C52.9 %0.9 m/s S
21.4.2024 14:38Všešímy7.0 °C52.5 %1.3 m/s SE
21.4.2024 14:38Všetaty6.9 °C51.5 %3.5 m/s N
21.4.2024 14:38Zaječice5.6 °C52.8 %1.8 m/s NE
21.4.2024 14:38Zápy7.3 °C45.4 %1.9 m/s NE
21.4.2024 14:38Zdice6.9 °C59.7 %1.7 m/s N
21.4.2024 14:38Zibohlavy7.6 °C49.1 %0.0 m/s E
21.4.2024 14:38Zichovec6.3 °C49.4 %2.2 m/s SE
Email notifications
Enter your email address to subscribe to notifications about news at warioweather.com. Your email address will not be used for any purpose other than sending these emails and will not be provided to any third party. The subscription can be ended at any time.
All data are only indicative. The portal administrator has no responsibility for potentially incorrect data and related consequences. Publishing or further sharing of content from www.warioweather.com is only allowed with written consent from WANET s.r.o.